sensor_id;sensor_type;location;lat;lon;timestamp;temperature;humidity
1297;DHT22;641;48.492;9.184;2023-08-07T00:01:51;11.60;99.90
1297;DHT22;641;48.492;9.184;2023-08-07T00:04:16;11.60;99.90
1297;DHT22;641;48.492;9.184;2023-08-07T00:06:42;11.60;99.90
1297;DHT22;641;48.492;9.184;2023-08-07T00:09:07;11.60;99.90
1297;DHT22;641;48.492;9.184;2023-08-07T00:11:33;11.60;99.90
1297;DHT22;641;48.492;9.184;2023-08-07T00:13:58;11.60;99.90
1297;DHT22;641;48.492;9.184;2023-08-07T00:16:24;11.60;99.90
1297;DHT22;641;48.492;9.184;2023-08-07T00:18:50;11.60;99.90
1297;DHT22;641;48.492;9.184;2023-08-07T00:21:18;11.60;99.90
1297;DHT22;641;48.492;9.184;2023-08-07T00:23:43;11.60;99.90
1297;DHT22;641;48.492;9.184;2023-08-07T00:26:09;11.60;99.90
1297;DHT22;641;48.492;9.184;2023-08-07T00:28:34;11.70;99.90
1297;DHT22;641;48.492;9.184;2023-08-07T00:31:00;11.70;99.50
1297;DHT22;641;48.492;9.184;2023-08-07T00:33:25;11.60;99.70
1297;DHT22;641;48.492;9.184;2023-08-07T00:35:51;11.50;99.80
1297;DHT22;641;48.492;9.184;2023-08-07T00:38:16;11.50;99.80
1297;DHT22;641;48.492;9.184;2023-08-07T00:40:42;11.50;99.90
1297;DHT22;641;48.492;9.184;2023-08-07T00:43:07;11.50;99.90
1297;DHT22;641;48.492;9.184;2023-08-07T00:45:41;11.50;99.90
1297;DHT22;641;48.492;9.184;2023-08-07T00:48:07;11.50;99.90
1297;DHT22;641;48.492;9.184;2023-08-07T00:50:33;11.40;99.90
1297;DHT22;641;48.492;9.184;2023-08-07T00:52:59;11.40;99.90
1297;DHT22;641;48.492;9.184;2023-08-07T00:55:25;11.30;99.90
1297;DHT22;641;48.492;9.184;2023-08-07T00:57:52;11.30;99.90
1297;DHT22;641;48.492;9.184;2023-08-07T01:00:18;11.30;99.90
1297;DHT22;641;48.492;9.184;2023-08-07T01:02:46;11.50;99.90
1297;DHT22;641;48.492;9.184;2023-08-07T01:05:14;11.30;99.90
1297;DHT22;641;48.492;9.184;2023-08-07T01:07:39;11.30;99.90
1297;DHT22;641;48.492;9.184;2023-08-07T01:10:05;11.30;99.90
1297;DHT22;641;48.492;9.184;2023-08-07T01:12:38;11.20;99.90
1297;DHT22;641;48.492;9.184;2023-08-07T01:15:16;11.20;99.90
1297;DHT22;641;48.492;9.184;2023-08-07T01:17:46;11.20;99.90
1297;DHT22;641;48.492;9.184;2023-08-07T01:20:12;11.20;99.90
1297;DHT22;641;48.492;9.184;2023-08-07T01:22:38;11.20;99.90
1297;DHT22;641;48.492;9.184;2023-08-07T01:25:04;11.20;99.90
1297;DHT22;641;48.492;9.184;2023-08-07T01:27:50;11.20;99.90
1297;DHT22;641;48.492;9.184;2023-08-07T01:30:21;11.10;99.90
1297;DHT22;641;48.492;9.184;2023-08-07T01:35:15;11.10;99.90
1297;DHT22;641;48.492;9.184;2023-08-07T01:37:42;11.10;99.90
1297;DHT22;641;48.492;9.184;2023-08-07T01:40:09;11.00;99.90
1297;DHT22;641;48.492;9.184;2023-08-07T01:42:36;11.00;99.90
1297;DHT22;641;48.492;9.184;2023-08-07T01:45:02;11.00;99.90
1297;DHT22;641;48.492;9.184;2023-08-07T01:47:29;11.00;99.90
1297;DHT22;641;48.492;9.184;2023-08-07T01:49:54;11.00;99.90
1297;DHT22;641;48.492;9.184;2023-08-07T01:52:20;11.00;99.90
1297;DHT22;641;48.492;9.184;2023-08-07T01:54:46;11.00;99.90
1297;DHT22;641;48.492;9.184;2023-08-07T01:57:12;11.00;99.90
1297;DHT22;641;48.492;9.184;2023-08-07T01:59:37;11.00;99.90
1297;DHT22;641;48.492;9.184;2023-08-07T02:02:03;11.00;99.90
1297;DHT22;641;48.492;9.184;2023-08-07T02:04:29;11.00;99.90
1297;DHT22;641;48.492;9.184;2023-08-07T02:06:54;10.90;99.90
1297;DHT22;641;48.492;9.184;2023-08-07T02:09:20;10.90;99.90
1297;DHT22;641;48.492;9.184;2023-08-07T02:11:46;11.00;99.90
1297;DHT22;641;48.492;9.184;2023-08-07T02:14:12;10.90;99.90
1297;DHT22;641;48.492;9.184;2023-08-07T02:16:37;10.90;99.90
1297;DHT22;641;48.492;9.184;2023-08-07T02:19:03;10.90;99.90
1297;DHT22;641;48.492;9.184;2023-08-07T02:21:28;10.90;99.90
1297;DHT22;641;48.492;9.184;2023-08-07T02:23:54;11.00;99.90
1297;DHT22;641;48.492;9.184;2023-08-07T02:26:19;10.90;99.90
1297;DHT22;641;48.492;9.184;2023-08-07T02:28:45;11.00;99.90
1297;DHT22;641;48.492;9.184;2023-08-07T02:31:10;11.00;99.90
1297;DHT22;641;48.492;9.184;2023-08-07T02:33:36;11.10;99.90
1297;DHT22;641;48.492;9.184;2023-08-07T02:36:01;11.10;99.90
1297;DHT22;641;48.492;9.184;2023-08-07T02:38:27;11.10;99.90
1297;DHT22;641;48.492;9.184;2023-08-07T02:40:52;11.10;99.90
1297;DHT22;641;48.492;9.184;2023-08-07T02:43:18;11.00;99.90
1297;DHT22;641;48.492;9.184;2023-08-07T02:45:43;11.00;99.90
1297;DHT22;641;48.492;9.184;2023-08-07T02:48:09;11.00;99.90
1297;DHT22;641;48.492;9.184;2023-08-07T02:50:35;11.00;99.90
1297;DHT22;641;48.492;9.184;2023-08-07T02:53:01;10.90;99.90
1297;DHT22;641;48.492;9.184;2023-08-07T02:55:27;10.90;99.80
1297;DHT22;641;48.492;9.184;2023-08-07T02:57:53;10.90;99.90
1297;DHT22;641;48.492;9.184;2023-08-07T03:00:18;11.00;99.80
1297;DHT22;641;48.492;9.184;2023-08-07T03:02:44;11.00;99.50
1297;DHT22;641;48.492;9.184;2023-08-07T03:05:10;11.00;99.60
1297;DHT22;641;48.492;9.184;2023-08-07T03:07:35;11.10;99.60
1297;DHT22;641;48.492;9.184;2023-08-07T03:10:01;11.10;99.20
1297;DHT22;641;48.492;9.184;2023-08-07T03:12:27;11.00;99.10
1297;DHT22;641;48.492;9.184;2023-08-07T03:14:52;11.10;99.60
1297;DHT22;641;48.492;9.184;2023-08-07T03:17:18;11.10;99.60
1297;DHT22;641;48.492;9.184;2023-08-07T03:19:43;11.10;99.00
1297;DHT22;641;48.492;9.184;2023-08-07T03:22:09;11.10;99.70
1297;DHT22;641;48.492;9.184;2023-08-07T03:24:35;11.10;99.10
1297;DHT22;641;48.492;9.184;2023-08-07T03:27:00;11.10;99.20
1297;DHT22;641;48.492;9.184;2023-08-07T03:29:26;11.10;99.10
1297;DHT22;641;48.492;9.184;2023-08-07T03:31:52;11.00;98.80
1297;DHT22;641;48.492;9.184;2023-08-07T03:34:18;10.90;98.50
1297;DHT22;641;48.492;9.184;2023-08-07T03:36:44;10.90;98.70
1297;DHT22;641;48.492;9.184;2023-08-07T03:39:10;10.80;99.00
1297;DHT22;641;48.492;9.184;2023-08-07T03:41:37;10.80;98.70
1297;DHT22;641;48.492;9.184;2023-08-07T03:44:03;10.80;98.90
1297;DHT22;641;48.492;9.184;2023-08-07T03:46:28;10.80;99.20
1297;DHT22;641;48.492;9.184;2023-08-07T03:48:54;10.80;98.70
1297;DHT22;641;48.492;9.184;2023-08-07T03:51:19;10.80;98.90
1297;DHT22;641;48.492;9.184;2023-08-07T03:53:45;10.70;98.70
1297;DHT22;641;48.492;9.184;2023-08-07T03:56:10;10.70;99.10
1297;DHT22;641;48.492;9.184;2023-08-07T03:58:36;10.70;99.10
1297;DHT22;641;48.492;9.184;2023-08-07T04:01:02;10.70;99.50
1297;DHT22;641;48.492;9.184;2023-08-07T04:03:27;10.70;99.40
1297;DHT22;641;48.492;9.184;2023-08-07T04:05:53;10.60;99.30
1297;DHT22;641;48.492;9.184;2023-08-07T04:08:20;10.60;99.50
1297;DHT22;641;48.492;9.184;2023-08-07T04:10:56;10.60;99.30
1297;DHT22;641;48.492;9.184;2023-08-07T04:13:22;10.60;99.40
1297;DHT22;641;48.492;9.184;2023-08-07T04:15:47;10.70;99.50
1297;DHT22;641;48.492;9.184;2023-08-07T04:18:14;10.80;99.80
1297;DHT22;641;48.492;9.184;2023-08-07T04:20:39;10.80;99.60
1297;DHT22;641;48.492;9.184;2023-08-07T04:23:05;10.80;99.30
1297;DHT22;641;48.492;9.184;2023-08-07T04:25:30;10.80;99.20
1297;DHT22;641;48.492;9.184;2023-08-07T04:27:56;10.80;99.40
1297;DHT22;641;48.492;9.184;2023-08-07T04:30:21;10.80;99.40
1297;DHT22;641;48.492;9.184;2023-08-07T04:32:47;10.80;98.90
1297;DHT22;641;48.492;9.184;2023-08-07T04:35:12;10.80;99.40
1297;DHT22;641;48.492;9.184;2023-08-07T04:37:38;10.90;99.20
1297;DHT22;641;48.492;9.184;2023-08-07T04:40:04;11.00;99.20
1297;DHT22;641;48.492;9.184;2023-08-07T04:42:30;11.00;99.00
1297;DHT22;641;48.492;9.184;2023-08-07T04:44:55;11.00;98.80
1297;DHT22;641;48.492;9.184;2023-08-07T04:47:21;10.90;98.50
1297;DHT22;641;48.492;9.184;2023-08-07T04:49:46;10.90;99.00
1297;DHT22;641;48.492;9.184;2023-08-07T04:52:12;10.90;98.80
1297;DHT22;641;48.492;9.184;2023-08-07T04:54:38;10.80;99.10
1297;DHT22;641;48.492;9.184;2023-08-07T04:57:03;10.80;98.80
1297;DHT22;641;48.492;9.184;2023-08-07T04:59:29;10.70;99.10
1297;DHT22;641;48.492;9.184;2023-08-07T05:01:56;10.70;98.70
1297;DHT22;641;48.492;9.184;2023-08-07T05:04:21;10.70;99.00
1297;DHT22;641;48.492;9.184;2023-08-07T05:06:47;10.80;99.30
1297;DHT22;641;48.492;9.184;2023-08-07T05:09:14;10.90;99.20
1297;DHT22;641;48.492;9.184;2023-08-07T05:11:39;10.90;99.00
1297;DHT22;641;48.492;9.184;2023-08-07T05:14:05;11.00;99.00
1297;DHT22;641;48.492;9.184;2023-08-07T05:16:30;10.90;98.70
1297;DHT22;641;48.492;9.184;2023-08-07T05:18:56;11.00;98.80
1297;DHT22;641;48.492;9.184;2023-08-07T05:21:21;11.00;98.80
1297;DHT22;641;48.492;9.184;2023-08-07T05:23:47;11.00;99.10
1297;DHT22;641;48.492;9.184;2023-08-07T05:26:13;11.10;99.00
1297;DHT22;641;48.492;9.184;2023-08-07T05:28:38;11.10;98.90
1297;DHT22;641;48.492;9.184;2023-08-07T05:31:04;11.20;98.80
1297;DHT22;641;48.492;9.184;2023-08-07T05:33:29;11.30;98.70
1297;DHT22;641;48.492;9.184;2023-08-07T05:35:55;11.40;98.50
1297;DHT22;641;48.492;9.184;2023-08-07T05:38:21;11.50;98.10
1297;DHT22;641;48.492;9.184;2023-08-07T05:40:46;11.60;98.00
1297;DHT22;641;48.492;9.184;2023-08-07T05:43:12;11.60;97.50
1297;DHT22;641;48.492;9.184;2023-08-07T05:45:38;11.70;97.70
1297;DHT22;641;48.492;9.184;2023-08-07T05:48:03;11.60;97.10
1297;DHT22;641;48.492;9.184;2023-08-07T05:50:29;11.50;97.40
1297;DHT22;641;48.492;9.184;2023-08-07T05:52:55;11.50;97.80
1297;DHT22;641;48.492;9.184;2023-08-07T05:55:20;11.50;97.70
1297;DHT22;641;48.492;9.184;2023-08-07T05:57:46;11.60;97.60
1297;DHT22;641;48.492;9.184;2023-08-07T06:00:11;11.70;97.80
1297;DHT22;641;48.492;9.184;2023-08-07T06:02:43;11.80;97.50
1297;DHT22;641;48.492;9.184;2023-08-07T06:05:08;11.90;97.50
1297;DHT22;641;48.492;9.184;2023-08-07T06:07:35;12.00;97.40
1297;DHT22;641;48.492;9.184;2023-08-07T06:10:00;12.10;97.20
1297;DHT22;641;48.492;9.184;2023-08-07T06:12:26;12.10;96.90
1297;DHT22;641;48.492;9.184;2023-08-07T06:14:52;12.10;96.70
1297;DHT22;641;48.492;9.184;2023-08-07T06:17:18;12.10;96.70
1297;DHT22;641;48.492;9.184;2023-08-07T06:19:43;12.10;97.00
1297;DHT22;641;48.492;9.184;2023-08-07T06:22:09;12.30;96.90
1297;DHT22;641;48.492;9.184;2023-08-07T06:24:34;12.20;96.80
1297;DHT22;641;48.492;9.184;2023-08-07T06:27:02;12.20;96.70
1297;DHT22;641;48.492;9.184;2023-08-07T06:29:27;12.40;96.70
1297;DHT22;641;48.492;9.184;2023-08-07T06:31:53;12.40;96.20
1297;DHT22;641;48.492;9.184;2023-08-07T06:34:18;12.40;95.90
1297;DHT22;641;48.492;9.184;2023-08-07T06:36:44;12.40;95.90
1297;DHT22;641;48.492;9.184;2023-08-07T06:39:10;12.30;95.30
1297;DHT22;641;48.492;9.184;2023-08-07T06:41:35;12.20;95.80
1297;DHT22;641;48.492;9.184;2023-08-07T06:44:01;12.20;96.00
1297;DHT22;641;48.492;9.184;2023-08-07T06:46:27;12.30;96.70
1297;DHT22;641;48.492;9.184;2023-08-07T06:48:54;12.50;96.50
1297;DHT22;641;48.492;9.184;2023-08-07T06:51:19;12.50;96.70
1297;DHT22;641;48.492;9.184;2023-08-07T06:53:45;12.60;96.00
1297;DHT22;641;48.492;9.184;2023-08-07T06:56:10;12.60;95.90
1297;DHT22;641;48.492;9.184;2023-08-07T06:58:36;12.60;96.10
1297;DHT22;641;48.492;9.184;2023-08-07T07:01:01;12.60;95.70
1297;DHT22;641;48.492;9.184;2023-08-07T07:03:27;12.80;96.00
1297;DHT22;641;48.492;9.184;2023-08-07T07:05:52;12.90;96.30
1297;DHT22;641;48.492;9.184;2023-08-07T07:08:18;13.10;95.90
1297;DHT22;641;48.492;9.184;2023-08-07T07:10:43;13.10;94.90
1297;DHT22;641;48.492;9.184;2023-08-07T07:13:09;13.30;95.50
1297;DHT22;641;48.492;9.184;2023-08-07T07:15:35;13.30;95.20
1297;DHT22;641;48.492;9.184;2023-08-07T07:18:01;13.20;94.70
1297;DHT22;641;48.492;9.184;2023-08-07T07:20:27;13.30;95.30
1297;DHT22;641;48.492;9.184;2023-08-07T07:22:53;13.30;94.80
1297;DHT22;641;48.492;9.184;2023-08-07T07:25:18;13.40;94.60
1297;DHT22;641;48.492;9.184;2023-08-07T07:27:44;13.60;94.70
1297;DHT22;641;48.492;9.184;2023-08-07T07:30:10;13.90;94.50
1297;DHT22;641;48.492;9.184;2023-08-07T07:32:35;13.90;93.40
1297;DHT22;641;48.492;9.184;2023-08-07T07:35:01;13.90;93.60
1297;DHT22;641;48.492;9.184;2023-08-07T07:37:27;13.60;93.00
1297;DHT22;641;48.492;9.184;2023-08-07T07:39:52;13.60;93.90
1297;DHT22;641;48.492;9.184;2023-08-07T07:42:18;13.70;94.20
1297;DHT22;641;48.492;9.184;2023-08-07T07:44:43;13.60;94.00
1297;DHT22;641;48.492;9.184;2023-08-07T07:47:09;13.80;94.30
1297;DHT22;641;48.492;9.184;2023-08-07T07:49:34;13.80;94.60
1297;DHT22;641;48.492;9.184;2023-08-07T07:52:00;14.00;93.60
1297;DHT22;641;48.492;9.184;2023-08-07T07:54:27;14.20;93.60
1297;DHT22;641;48.492;9.184;2023-08-07T07:56:53;14.40;93.00
1297;DHT22;641;48.492;9.184;2023-08-07T07:59:18;14.40;92.10
1297;DHT22;641;48.492;9.184;2023-08-07T08:01:44;14.30;92.00
1297;DHT22;641;48.492;9.184;2023-08-07T08:04:10;14.20;93.10
1297;DHT22;641;48.492;9.184;2023-08-07T08:06:35;14.10;92.00
1297;DHT22;641;48.492;9.184;2023-08-07T08:09:01;14.20;92.90
1297;DHT22;641;48.492;9.184;2023-08-07T08:11:30;14.20;92.20
1297;DHT22;641;48.492;9.184;2023-08-07T08:13:55;14.30;92.00
1297;DHT22;641;48.492;9.184;2023-08-07T08:16:21;14.50;91.70
1297;DHT22;641;48.492;9.184;2023-08-07T08:18:47;14.80;92.00
1297;DHT22;641;48.492;9.184;2023-08-07T08:21:12;14.80;87.80
1297;DHT22;641;48.492;9.184;2023-08-07T08:23:38;14.90;89.60
1297;DHT22;641;48.492;9.184;2023-08-07T08:26:03;14.80;88.40
1297;DHT22;641;48.492;9.184;2023-08-07T08:28:29;15.10;88.50
1297;DHT22;641;48.492;9.184;2023-08-07T08:30:54;15.00;88.30
1297;DHT22;641;48.492;9.184;2023-08-07T08:33:20;15.10;87.10
1297;DHT22;641;48.492;9.184;2023-08-07T08:35:45;15.20;83.60
1297;DHT22;641;48.492;9.184;2023-08-07T08:38:11;15.30;82.70
1297;DHT22;641;48.492;9.184;2023-08-07T08:40:38;15.40;83.50
1297;DHT22;641;48.492;9.184;2023-08-07T08:43:04;15.30;81.40
1297;DHT22;641;48.492;9.184;2023-08-07T08:45:31;15.30;84.10
1297;DHT22;641;48.492;9.184;2023-08-07T08:48:02;15.40;85.10
1297;DHT22;641;48.492;9.184;2023-08-07T08:50:29;15.50;83.10
1297;DHT22;641;48.492;9.184;2023-08-07T08:52:56;15.50;79.00
1297;DHT22;641;48.492;9.184;2023-08-07T08:55:22;15.50;75.70
1297;DHT22;641;48.492;9.184;2023-08-07T08:57:48;15.60;74.00
1297;DHT22;641;48.492;9.184;2023-08-07T09:00:15;15.70;75.00
1297;DHT22;641;48.492;9.184;2023-08-07T09:02:49;15.70;73.00
1297;DHT22;641;48.492;9.184;2023-08-07T09:05:17;15.80;72.00
1297;DHT22;641;48.492;9.184;2023-08-07T09:07:43;15.80;69.70
1297;DHT22;641;48.492;9.184;2023-08-07T09:10:12;15.60;70.30
1297;DHT22;641;48.492;9.184;2023-08-07T09:12:41;15.50;72.60
1297;DHT22;641;48.492;9.184;2023-08-07T09:15:08;15.70;72.50
1297;DHT22;641;48.492;9.184;2023-08-07T09:17:40;15.80;69.70
1297;DHT22;641;48.492;9.184;2023-08-07T09:20:07;16.10;70.70
1297;DHT22;641;48.492;9.184;2023-08-07T09:22:37;16.10;69.90
1297;DHT22;641;48.492;9.184;2023-08-07T09:25:03;16.20;70.00
1297;DHT22;641;48.492;9.184;2023-08-07T09:27:30;16.40;69.80
1297;DHT22;641;48.492;9.184;2023-08-07T09:29:56;16.30;69.90
1297;DHT22;641;48.492;9.184;2023-08-07T09:32:23;16.50;74.60
1297;DHT22;641;48.492;9.184;2023-08-07T09:34:50;16.60;70.70
1297;DHT22;641;48.492;9.184;2023-08-07T09:37:16;16.40;66.80
1297;DHT22;641;48.492;9.184;2023-08-07T09:39:42;16.20;65.60
1297;DHT22;641;48.492;9.184;2023-08-07T09:42:16;16.20;64.60
1297;DHT22;641;48.492;9.184;2023-08-07T09:44:43;16.10;65.40
1297;DHT22;641;48.492;9.184;2023-08-07T09:47:17;16.10;64.10
1297;DHT22;641;48.492;9.184;2023-08-07T09:49:44;16.20;64.60
1297;DHT22;641;48.492;9.184;2023-08-07T09:52:12;16.10;64.20
1297;DHT22;641;48.492;9.184;2023-08-07T09:54:41;16.20;64.70
1297;DHT22;641;48.492;9.184;2023-08-07T09:57:07;16.50;66.20
1297;DHT22;641;48.492;9.184;2023-08-07T09:59:33;16.60;63.90
1297;DHT22;641;48.492;9.184;2023-08-07T10:02:00;16.80;60.00
1297;DHT22;641;48.492;9.184;2023-08-07T10:04:27;16.70;58.70
1297;DHT22;641;48.492;9.184;2023-08-07T10:06:53;16.50;59.20
1297;DHT22;641;48.492;9.184;2023-08-07T10:09:19;16.40;59.10
1297;DHT22;641;48.492;9.184;2023-08-07T10:11:45;16.30;60.40
1297;DHT22;641;48.492;9.184;2023-08-07T10:14:15;16.30;62.10
1297;DHT22;641;48.492;9.184;2023-08-07T10:16:41;16.70;64.40
1297;DHT22;641;48.492;9.184;2023-08-07T10:19:07;16.80;63.30
1297;DHT22;641;48.492;9.184;2023-08-07T10:21:36;16.60;62.70
1297;DHT22;641;48.492;9.184;2023-08-07T10:24:07;16.40;63.90
1297;DHT22;641;48.492;9.184;2023-08-07T10:26:35;16.50;65.00
1297;DHT22;641;48.492;9.184;2023-08-07T10:29:08;16.60;61.60
1297;DHT22;641;48.492;9.184;2023-08-07T10:31:35;16.80;62.40
1297;DHT22;641;48.492;9.184;2023-08-07T10:34:01;17.20;63.10
1297;DHT22;641;48.492;9.184;2023-08-07T10:36:34;17.50;59.80
1297;DHT22;641;48.492;9.184;2023-08-07T10:39:13;17.80;59.00
1297;DHT22;641;48.492;9.184;2023-08-07T10:41:46;17.60;58.10
1297;DHT22;641;48.492;9.184;2023-08-07T10:44:23;17.20;59.40
1297;DHT22;641;48.492;9.184;2023-08-07T10:46:51;17.20;59.40
1297;DHT22;641;48.492;9.184;2023-08-07T10:49:30;17.30;58.70
1297;DHT22;641;48.492;9.184;2023-08-07T10:51:58;17.50;57.30
1297;DHT22;641;48.492;9.184;2023-08-07T10:54:24;17.30;56.80
1297;DHT22;641;48.492;9.184;2023-08-07T10:56:54;16.90;57.90
1297;DHT22;641;48.492;9.184;2023-08-07T10:59:20;16.60;57.60
1297;DHT22;641;48.492;9.184;2023-08-07T11:01:51;16.50;58.00
1297;DHT22;641;48.492;9.184;2023-08-07T11:04:17;16.70;58.50
1297;DHT22;641;48.492;9.184;2023-08-07T11:06:46;16.60;57.90
1297;DHT22;641;48.492;9.184;2023-08-07T11:09:12;17.00;58.20
1297;DHT22;641;48.492;9.184;2023-08-07T11:11:45;16.80;57.90
1297;DHT22;641;48.492;9.184;2023-08-07T11:14:15;16.80;57.80
1297;DHT22;641;48.492;9.184;2023-08-07T11:16:42;16.70;58.60
1297;DHT22;641;48.492;9.184;2023-08-07T11:19:08;17.00;59.40
1297;DHT22;641;48.492;9.184;2023-08-07T11:21:35;17.60;58.90
1297;DHT22;641;48.492;9.184;2023-08-07T11:24:01;18.00;57.80
1297;DHT22;641;48.492;9.184;2023-08-07T11:26:27;18.10;58.20
1297;DHT22;641;48.492;9.184;2023-08-07T11:28:54;18.10;56.70
1297;DHT22;641;48.492;9.184;2023-08-07T11:31:20;18.00;56.30
1297;DHT22;641;48.492;9.184;2023-08-07T11:33:46;17.70;55.50
1297;DHT22;641;48.492;9.184;2023-08-07T11:36:13;17.70;56.60
1297;DHT22;641;48.492;9.184;2023-08-07T11:38:40;17.20;56.90
1297;DHT22;641;48.492;9.184;2023-08-07T11:41:10;17.00;57.30
1297;DHT22;641;48.492;9.184;2023-08-07T11:43:36;16.80;57.80
1297;DHT22;641;48.492;9.184;2023-08-07T11:46:07;17.30;57.40
1297;DHT22;641;48.492;9.184;2023-08-07T11:48:34;16.60;59.80
1297;DHT22;641;48.492;9.184;2023-08-07T11:51:01;16.50;58.30
1297;DHT22;641;48.492;9.184;2023-08-07T11:53:29;16.70;59.40
1297;DHT22;641;48.492;9.184;2023-08-07T11:55:56;16.60;59.80
1297;DHT22;641;48.492;9.184;2023-08-07T11:58:25;16.80;59.80
1297;DHT22;641;48.492;9.184;2023-08-07T12:00:51;16.90;59.20
1297;DHT22;641;48.492;9.184;2023-08-07T12:03:30;16.90;58.80
1297;DHT22;641;48.492;9.184;2023-08-07T12:05:56;17.20;58.50
1297;DHT22;641;48.492;9.184;2023-08-07T12:08:22;17.30;59.20
1297;DHT22;641;48.492;9.184;2023-08-07T12:10:54;17.30;59.50
1297;DHT22;641;48.492;9.184;2023-08-07T12:13:26;16.70;58.40
1297;DHT22;641;48.492;9.184;2023-08-07T12:15:55;16.60;59.00
1297;DHT22;641;48.492;9.184;2023-08-07T12:18:22;16.30;59.20
1297;DHT22;641;48.492;9.184;2023-08-07T12:20:50;16.00;59.80
1297;DHT22;641;48.492;9.184;2023-08-07T12:23:16;16.00;59.90
1297;DHT22;641;48.492;9.184;2023-08-07T12:25:43;15.80;59.80
1297;DHT22;641;48.492;9.184;2023-08-07T12:28:09;15.80;59.70
1297;DHT22;641;48.492;9.184;2023-08-07T12:30:35;15.70;59.70
1297;DHT22;641;48.492;9.184;2023-08-07T12:33:00;15.70;60.90
1297;DHT22;641;48.492;9.184;2023-08-07T12:35:26;15.60;60.60
1297;DHT22;641;48.492;9.184;2023-08-07T12:37:51;15.60;61.80
1297;DHT22;641;48.492;9.184;2023-08-07T12:40:17;15.60;61.20
1297;DHT22;641;48.492;9.184;2023-08-07T12:42:46;15.50;62.00
1297;DHT22;641;48.492;9.184;2023-08-07T12:45:11;15.70;62.80
1297;DHT22;641;48.492;9.184;2023-08-07T12:47:37;15.90;62.10
1297;DHT22;641;48.492;9.184;2023-08-07T12:50:02;16.10;62.20
1297;DHT22;641;48.492;9.184;2023-08-07T12:52:28;16.30;61.00
1297;DHT22;641;48.492;9.184;2023-08-07T12:54:54;16.50;62.50
1297;DHT22;641;48.492;9.184;2023-08-07T12:57:20;16.50;59.30
1297;DHT22;641;48.492;9.184;2023-08-07T12:59:46;16.40;60.00
1297;DHT22;641;48.492;9.184;2023-08-07T13:02:11;16.30;60.20
1297;DHT22;641;48.492;9.184;2023-08-07T13:04:37;16.40;60.90
1297;DHT22;641;48.492;9.184;2023-08-07T13:07:02;16.40;62.10
1297;DHT22;641;48.492;9.184;2023-08-07T13:09:28;16.40;61.20
1297;DHT22;641;48.492;9.184;2023-08-07T13:11:56;16.40;62.90
1297;DHT22;641;48.492;9.184;2023-08-07T13:14:21;16.50;62.30
1297;DHT22;641;48.492;9.184;2023-08-07T13:16:47;16.40;62.80
1297;DHT22;641;48.492;9.184;2023-08-07T13:19:14;16.40;64.00
1297;DHT22;641;48.492;9.184;2023-08-07T13:21:40;16.40;63.30
1297;DHT22;641;48.492;9.184;2023-08-07T13:24:05;16.30;62.80
1297;DHT22;641;48.492;9.184;2023-08-07T13:26:31;16.40;62.30
1297;DHT22;641;48.492;9.184;2023-08-07T13:28:57;16.60;62.50
1297;DHT22;641;48.492;9.184;2023-08-07T13:31:22;16.90;62.20
1297;DHT22;641;48.492;9.184;2023-08-07T13:33:48;17.40;60.30
1297;DHT22;641;48.492;9.184;2023-08-07T13:36:13;17.90;59.70
1297;DHT22;641;48.492;9.184;2023-08-07T13:38:39;17.90;60.20
1297;DHT22;641;48.492;9.184;2023-08-07T13:41:04;18.20;61.60
1297;DHT22;641;48.492;9.184;2023-08-07T13:43:30;18.10;59.70
1297;DHT22;641;48.492;9.184;2023-08-07T13:45:55;18.00;61.90
1297;DHT22;641;48.492;9.184;2023-08-07T13:48:21;17.60;60.30
1297;DHT22;641;48.492;9.184;2023-08-07T13:50:47;17.30;62.00
1297;DHT22;641;48.492;9.184;2023-08-07T13:53:12;17.30;63.30
1297;DHT22;641;48.492;9.184;2023-08-07T13:55:38;16.90;63.60
1297;DHT22;641;48.492;9.184;2023-08-07T13:58:03;16.60;63.70
1297;DHT22;641;48.492;9.184;2023-08-07T14:00:29;16.50;63.40
1297;DHT22;641;48.492;9.184;2023-08-07T14:02:55;16.60;63.80
1297;DHT22;641;48.492;9.184;2023-08-07T14:05:21;16.70;60.60
1297;DHT22;641;48.492;9.184;2023-08-07T14:07:46;16.90;61.50
1297;DHT22;641;48.492;9.184;2023-08-07T14:10:12;17.00;62.60
1297;DHT22;641;48.492;9.184;2023-08-07T14:12:37;17.20;62.90
1297;DHT22;641;48.492;9.184;2023-08-07T14:15:03;17.30;60.30
1297;DHT22;641;48.492;9.184;2023-08-07T14:17:29;17.40;60.80
1297;DHT22;641;48.492;9.184;2023-08-07T14:19:54;17.60;60.90
1297;DHT22;641;48.492;9.184;2023-08-07T14:22:20;17.80;61.30
1297;DHT22;641;48.492;9.184;2023-08-07T14:24:45;17.90;62.00
1297;DHT22;641;48.492;9.184;2023-08-07T14:27:11;18.10;60.10
1297;DHT22;641;48.492;9.184;2023-08-07T14:29:36;18.20;60.50
1297;DHT22;641;48.492;9.184;2023-08-07T14:32:02;18.30;60.20
1297;DHT22;641;48.492;9.184;2023-08-07T14:34:28;18.10;59.50
1297;DHT22;641;48.492;9.184;2023-08-07T14:36:53;17.80;59.40
1297;DHT22;641;48.492;9.184;2023-08-07T14:39:19;18.10;59.70
1297;DHT22;641;48.492;9.184;2023-08-07T14:41:46;18.20;58.70
1297;DHT22;641;48.492;9.184;2023-08-07T14:44:13;18.10;58.40
1297;DHT22;641;48.492;9.184;2023-08-07T14:46:39;18.10;58.40
1297;DHT22;641;48.492;9.184;2023-08-07T14:49:04;18.20;57.80
1297;DHT22;641;48.492;9.184;2023-08-07T14:51:30;18.40;56.50
1297;DHT22;641;48.492;9.184;2023-08-07T14:53:55;18.50;55.40
1297;DHT22;641;48.492;9.184;2023-08-07T14:56:21;18.20;55.40
1297;DHT22;641;48.492;9.184;2023-08-07T14:58:46;17.80;55.60
1297;DHT22;641;48.492;9.184;2023-08-07T15:01:12;17.60;55.90
1297;DHT22;641;48.492;9.184;2023-08-07T15:03:37;17.30;57.10
1297;DHT22;641;48.492;9.184;2023-08-07T15:06:03;17.10;57.60
1297;DHT22;641;48.492;9.184;2023-08-07T15:08:30;17.10;58.80
1297;DHT22;641;48.492;9.184;2023-08-07T15:10:55;17.10;58.70
1297;DHT22;641;48.492;9.184;2023-08-07T15:13:21;16.80;59.00
1297;DHT22;641;48.492;9.184;2023-08-07T15:15:46;16.80;59.30
1297;DHT22;641;48.492;9.184;2023-08-07T15:18:12;16.80;59.60
1297;DHT22;641;48.492;9.184;2023-08-07T15:20:37;16.90;60.30
1297;DHT22;641;48.492;9.184;2023-08-07T15:23:03;16.80;59.60
1297;DHT22;641;48.492;9.184;2023-08-07T15:25:29;16.80;60.20
1297;DHT22;641;48.492;9.184;2023-08-07T15:27:54;16.80;60.30
1297;DHT22;641;48.492;9.184;2023-08-07T15:30:26;17.00;61.10
1297;DHT22;641;48.492;9.184;2023-08-07T15:32:52;17.00;61.50
1297;DHT22;641;48.492;9.184;2023-08-07T15:35:17;17.10;60.90
1297;DHT22;641;48.492;9.184;2023-08-07T15:37:43;17.10;61.10
1297;DHT22;641;48.492;9.184;2023-08-07T15:40:09;17.20;61.90
1297;DHT22;641;48.492;9.184;2023-08-07T15:42:34;17.40;62.30
1297;DHT22;641;48.492;9.184;2023-08-07T15:45:00;17.50;60.90
1297;DHT22;641;48.492;9.184;2023-08-07T15:47:27;17.40;61.80
1297;DHT22;641;48.492;9.184;2023-08-07T15:49:52;17.60;61.30
1297;DHT22;641;48.492;9.184;2023-08-07T15:52:18;17.60;59.00
1297;DHT22;641;48.492;9.184;2023-08-07T15:54:43;17.80;58.50
1297;DHT22;641;48.492;9.184;2023-08-07T15:57:11;18.10;59.00
1297;DHT22;641;48.492;9.184;2023-08-07T15:59:37;18.30;57.60
1297;DHT22;641;48.492;9.184;2023-08-07T16:02:04;18.10;56.40
1297;DHT22;641;48.492;9.184;2023-08-07T16:04:30;18.80;59.20
1297;DHT22;641;48.492;9.184;2023-08-07T16:06:55;20.00;57.60
1297;DHT22;641;48.492;9.184;2023-08-07T16:09:21;21.00;51.80
1297;DHT22;641;48.492;9.184;2023-08-07T16:11:46;21.30;49.90
1297;DHT22;641;48.492;9.184;2023-08-07T16:14:12;21.20;50.20